createdAt,value
2019-06-01T00:02:24.120Z,4.27
2019-06-01T00:04:56.181Z,4.17
2019-06-01T00:07:29.099Z,3.77
2019-06-01T00:10:01.694Z,3.45
2019-06-01T00:12:33.949Z,3.77
2019-06-01T00:15:06.071Z,4.70
2019-06-01T00:17:38.118Z,3.87
2019-06-01T00:20:10.455Z,4.10
2019-06-01T00:22:43.371Z,3.22
2019-06-01T00:25:15.901Z,4.17
2019-06-01T00:27:48.813Z,7.13
2019-06-01T00:30:27.042Z,5.10
2019-06-01T00:32:56.384Z,4.43
2019-06-01T00:35:36.559Z,4.20
2019-06-01T00:38:10.162Z,4.30
2019-06-01T00:40:44.370Z,4.87
2019-06-01T00:43:18.535Z,4.57
2019-06-01T00:45:50.716Z,3.67
2019-06-01T00:48:24.304Z,5.00
2019-06-01T00:50:57.038Z,4.53
2019-06-01T00:53:29.378Z,4.07
2019-06-01T00:56:02.437Z,3.50
2019-06-01T00:58:35.884Z,4.45
2019-06-01T01:01:09.327Z,4.58
2019-06-01T01:03:41.651Z,4.50
2019-06-01T01:06:14.107Z,6.00
2019-06-01T01:08:55.231Z,7.50
2019-06-01T01:11:28.235Z,4.23
2019-06-01T01:14:01.022Z,4.40
2019-06-01T01:16:34.136Z,6.67
2019-06-01T01:19:07.599Z,5.13
2019-06-01T01:21:39.503Z,3.80
2019-06-01T01:24:20.773Z,3.92
2019-06-01T01:26:52.677Z,4.77
2019-06-01T01:29:25.221Z,5.23
2019-06-01T01:31:57.544Z,5.87
2019-06-01T01:34:38.094Z,4.50
2019-06-01T01:37:30.255Z,4.70
2019-06-01T01:40:03.786Z,3.75
2019-06-01T01:42:36.366Z,6.60
2019-06-01T01:45:09.600Z,5.15
2019-06-01T01:47:42.941Z,5.67
2019-06-01T01:50:17.487Z,4.83
2019-06-01T01:52:50.627Z,4.63
2019-06-01T01:55:33.396Z,5.87
2019-06-01T01:58:05.950Z,4.80
2019-06-01T02:00:46.146Z,3.77
2019-06-01T02:03:19.120Z,5.23
2019-06-01T02:05:51.114Z,6.10
2019-06-01T02:08:23.988Z,4.73
2019-06-01T02:10:59.542Z,5.13
2019-06-01T02:13:33.782Z,7.03
2019-06-01T02:16:06.237Z,4.77
2019-06-01T02:18:37.693Z,5.50
2019-06-01T02:21:11.130Z,4.00
2019-06-01T02:23:43.142Z,4.07
2019-06-01T02:26:16.427Z,5.03
2019-06-01T02:28:50.488Z,6.90
2019-06-01T02:31:39.801Z,4.80
2019-06-01T02:33:58.662Z,4.63
2019-06-01T02:36:32.861Z,4.23
2019-06-01T02:39:07.123Z,4.07
2019-06-01T02:41:40.589Z,5.33
2019-06-01T02:44:13.002Z,6.00
2019-06-01T02:46:45.853Z,4.07
2019-06-01T02:49:17.801Z,4.50
2019-06-01T02:51:50.323Z,5.50
2019-06-01T02:54:24.801Z,5.27
2019-06-01T02:57:14.616Z,4.80
2019-06-01T02:59:48.362Z,5.33
2019-06-01T03:02:21.746Z,4.97
2019-06-01T03:04:57.083Z,5.08
2019-06-01T03:07:31.908Z,6.12
2019-06-01T03:10:06.957Z,5.93
2019-06-01T03:12:45.822Z,5.12
2019-06-01T03:15:19.228Z,4.57
2019-06-01T03:17:56.639Z,4.73
2019-06-01T03:20:31.942Z,6.23
2019-06-01T03:23:05.765Z,6.20
2019-06-01T03:25:41.099Z,7.13
2019-06-01T03:28:16.727Z,5.40
2019-06-01T03:30:49.480Z,5.73
2019-06-01T03:33:23.329Z,5.00
2019-06-01T03:35:56.799Z,7.10
2019-06-01T03:38:30.143Z,5.10
2019-06-01T03:41:04.010Z,4.67
2019-06-01T03:43:35.983Z,6.53
2019-06-01T03:46:09.474Z,5.67
2019-06-01T03:48:41.538Z,4.77
2019-06-01T03:51:22.963Z,5.15
2019-06-01T03:53:55.021Z,5.83
2019-06-01T03:56:28.041Z,4.80
2019-06-01T03:59:03.075Z,5.77
2019-06-01T04:01:36.564Z,6.08
2019-06-01T04:04:09.426Z,5.58
2019-06-01T04:06:42.344Z,6.87
2019-06-01T04:09:14.959Z,5.95
2019-06-01T04:11:47.582Z,5.50
2019-06-01T04:14:20.494Z,6.27
2019-06-01T04:16:53.854Z,5.57
2019-06-01T04:19:35.532Z,5.30
2019-06-01T04:22:12.868Z,6.73
2019-06-01T04:24:45.638Z,7.08
2019-06-01T04:27:19.459Z,5.23
2019-06-01T04:29:52.637Z,5.73
2019-06-01T04:32:26.405Z,5.53
2019-06-01T04:34:58.581Z,6.35
2019-06-01T04:37:31.352Z,7.13
2019-06-01T04:40:05.420Z,6.13
2019-06-01T04:42:44.903Z,6.17
2019-06-01T04:45:18.792Z,5.60
2019-06-01T04:47:50.318Z,6.60
2019-06-01T04:50:30.646Z,5.90
2019-06-01T04:53:13.308Z,5.93
2019-06-01T04:55:45.620Z,6.90
2019-06-01T04:58:17.563Z,7.30
2019-06-01T05:01:01.658Z,6.75
2019-06-01T05:03:35.001Z,7.47
2019-06-01T05:06:07.514Z,7.63
2019-06-01T05:08:40.052Z,7.85
2019-06-01T05:11:13.586Z,8.40
2019-06-01T05:13:46.577Z,6.70
2019-06-01T05:16:20.264Z,7.70
2019-06-01T05:18:54.178Z,7.80
2019-06-01T05:21:26.218Z,10.07
2019-06-01T05:23:59.462Z,7.47
2019-06-01T05:26:32.640Z,6.87
2019-06-01T05:29:07.457Z,8.13
2019-06-01T05:31:39.803Z,6.10
2019-06-01T05:34:20.496Z,7.03
2019-06-01T05:36:52.847Z,7.10
2019-06-01T05:39:24.871Z,6.93
2019-06-01T05:41:57.224Z,7.60
2019-06-01T05:44:30.931Z,8.13
2019-06-01T05:47:04.486Z,7.47
2019-06-01T05:49:36.407Z,6.20
2019-06-01T05:52:18.812Z,7.78
2019-06-01T05:54:50.540Z,7.37
2019-06-01T05:57:23.429Z,7.57
2019-06-01T05:59:55.656Z,7.30
2019-06-01T06:02:27.562Z,6.90
2019-06-01T06:05:00.195Z,7.90
2019-06-01T06:07:35.436Z,7.40
2019-06-01T06:10:09.947Z,6.05
2019-06-01T06:12:42.463Z,7.20
2019-06-01T06:15:15.714Z,7.17
2019-06-01T06:18:05.140Z,8.53
2019-06-01T06:20:50.291Z,8.37
2019-06-01T06:23:24.153Z,6.40
2019-06-01T06:25:55.616Z,7.30
2019-06-01T06:28:28.489Z,7.20
2019-06-01T06:31:00.518Z,7.55
2019-06-01T06:33:36.757Z,6.07
2019-06-01T06:36:07.764Z,6.03
2019-06-01T06:38:40.326Z,7.13
2019-06-01T06:41:24.349Z,6.03
2019-06-01T06:43:57.246Z,5.87
2019-06-01T06:46:41.273Z,5.57
2019-06-01T06:49:14.927Z,5.73
2019-06-01T06:51:47.288Z,5.87
2019-06-01T06:54:19.936Z,6.20
2019-06-01T06:56:59.579Z,5.40
2019-06-01T06:59:32.006Z,5.03
2019-06-01T07:02:05.558Z,5.57
2019-06-01T07:04:47.672Z,5.33
2019-06-01T07:07:20.230Z,5.70
2019-06-01T07:09:52.570Z,7.10
2019-06-01T07:12:25.385Z,5.23
2019-06-01T07:14:58.843Z,3.90
2019-06-01T07:17:31.909Z,6.10
2019-06-01T07:20:05.417Z,3.45
2019-06-01T07:22:37.546Z,4.50
2019-06-01T07:25:12.511Z,4.07
2019-06-01T07:27:45.163Z,6.00
2019-06-01T07:30:18.527Z,5.70
2019-06-01T07:32:51.579Z,5.00
2019-06-01T07:35:24.423Z,4.60
2019-06-01T07:37:57.630Z,4.12
2019-06-01T07:40:30.765Z,4.43
2019-06-01T07:43:03.143Z,5.97
2019-06-01T07:45:35.853Z,4.37
2019-06-01T07:48:08.409Z,5.30
2019-06-01T07:50:40.928Z,3.77
2019-06-01T07:53:14.904Z,4.60
2019-06-01T07:55:48.014Z,4.80
2019-06-01T07:58:20.966Z,5.60
2019-06-01T08:00:53.696Z,4.60
2019-06-01T08:03:28.719Z,4.53
2019-06-01T08:06:00.136Z,3.50
2019-06-01T08:08:32.681Z,3.85
2019-06-01T08:11:04.347Z,3.90
2019-06-01T08:13:36.954Z,4.53
2019-06-01T08:16:09.329Z,3.20
2019-06-01T08:18:43.538Z,5.47
2019-06-01T08:21:16.770Z,4.63
2019-06-01T08:23:48.032Z,4.93
2019-06-01T08:26:20.581Z,3.97
2019-06-01T08:28:52.397Z,5.40
2019-06-01T08:31:24.898Z,3.23
2019-06-01T08:33:57.462Z,5.13
2019-06-01T08:36:29.669Z,4.03
2019-06-01T08:39:02.167Z,4.00
2019-06-01T08:41:34.843Z,3.47
2019-06-01T08:44:09.182Z,4.30
2019-06-01T08:46:51.205Z,3.70
2019-06-01T08:49:25.858Z,4.20
2019-06-01T08:51:59.516Z,2.90
2019-06-01T08:54:34.346Z,3.12
2019-06-01T08:57:06.939Z,3.17
2019-06-01T08:59:39.969Z,3.43
2019-06-01T09:02:14.048Z,3.43
2019-06-01T09:04:46.027Z,2.87
2019-06-01T09:07:19.519Z,3.77
2019-06-01T09:09:52.478Z,4.20
2019-06-01T09:12:25.121Z,2.83
2019-06-01T09:14:58.983Z,3.23
2019-06-01T09:17:31.577Z,3.90
2019-06-01T09:20:04.295Z,2.80
2019-06-01T09:22:37.624Z,2.57
2019-06-01T09:25:10.513Z,4.05
2019-06-01T09:27:42.679Z,3.30
2019-06-01T09:30:16.449Z,3.53
2019-06-01T09:32:48.410Z,3.23
2019-06-01T09:35:19.217Z,4.43
2019-06-01T09:37:51.309Z,2.72
2019-06-01T09:40:23.562Z,3.35
2019-06-01T09:42:55.629Z,3.60
2019-06-01T09:45:28.209Z,4.05
2019-06-01T09:47:59.751Z,3.60
2019-06-01T09:50:33.453Z,2.40
2019-06-01T09:53:05.570Z,2.13
2019-06-01T09:55:38.464Z,3.77
2019-06-01T09:58:11.230Z,2.35
2019-06-01T10:00:44.076Z,3.03
2019-06-01T10:03:16.458Z,2.47
2019-06-01T10:06:01.456Z,3.87
2019-06-01T10:08:22.676Z,2.50
2019-06-01T10:10:56.276Z,2.33
2019-06-01T10:13:28.230Z,2.40
2019-06-01T10:15:59.065Z,3.50
2019-06-01T10:18:30.968Z,2.47
2019-06-01T10:21:03.007Z,3.30
2019-06-01T10:23:34.745Z,2.10
2019-06-01T10:26:07.816Z,3.40
2019-06-01T10:28:40.338Z,2.40
2019-06-01T10:31:11.942Z,2.40
2019-06-01T10:33:43.424Z,2.63
2019-06-01T10:36:20.510Z,3.20
2019-06-01T10:38:49.916Z,3.73
2019-06-01T10:41:22.985Z,2.60
2019-06-01T10:43:55.878Z,3.20
2019-06-01T10:46:29.077Z,3.40
2019-06-01T10:49:01.086Z,3.27
2019-06-01T10:51:32.496Z,3.53
2019-06-01T10:54:05.616Z,2.90
2019-06-01T10:56:38.480Z,4.07
2019-06-01T10:59:11.272Z,3.87
2019-06-01T11:01:42.977Z,2.10
2019-06-01T11:04:15.536Z,2.50
2019-06-01T11:06:48.801Z,2.40
2019-06-01T11:09:20.737Z,3.80
2019-06-01T11:11:53.505Z,3.57
2019-06-01T11:14:24.676Z,2.20
2019-06-01T11:16:57.036Z,2.87
2019-06-01T11:19:28.939Z,2.93
2019-06-01T11:22:00.497Z,3.57
2019-06-01T11:24:33.268Z,3.57
2019-06-01T11:27:05.417Z,3.33
2019-06-01T11:29:42.878Z,2.63
2019-06-01T11:32:10.737Z,1.77
2019-06-01T11:34:42.494Z,2.47
2019-06-01T11:37:15.796Z,2.37
2019-06-01T11:39:47.699Z,1.95
2019-06-01T11:42:19.921Z,2.00
2019-06-01T11:44:52.565Z,2.53
2019-06-01T11:47:23.577Z,3.70
2019-06-01T11:49:55.218Z,1.80
2019-06-01T11:52:30.996Z,3.30
2019-06-01T11:55:04.041Z,3.65
2019-06-01T11:57:35.576Z,3.67
2019-06-01T12:00:09.419Z,4.03
2019-06-01T12:02:41.823Z,2.77
2019-06-01T12:05:14.484Z,3.08
2019-06-01T12:07:46.094Z,2.40
2019-06-01T12:10:17.977Z,1.77
2019-06-01T12:12:50.497Z,2.20
2019-06-01T12:15:26.579Z,2.97
2019-06-01T12:17:57.827Z,2.80
2019-06-01T12:20:29.697Z,2.70
2019-06-01T12:23:01.596Z,2.10
2019-06-01T12:25:33.796Z,3.10
2019-06-01T12:28:05.336Z,3.07
2019-06-01T12:30:37.510Z,3.47
2019-06-01T12:33:09.416Z,2.67
2019-06-01T12:35:42.011Z,3.20
2019-06-01T12:38:13.176Z,3.00
2019-06-01T12:40:43.690Z,1.70
2019-06-01T12:43:14.196Z,3.62
2019-06-01T12:45:45.700Z,2.87
2019-06-01T12:48:17.136Z,2.00
2019-06-01T12:50:50.757Z,2.85
2019-06-01T12:53:19.858Z,4.67
2019-06-01T12:55:50.389Z,2.30
2019-06-01T12:58:21.296Z,2.77
2019-06-01T13:00:52.522Z,1.98
2019-06-01T13:03:22.865Z,2.43
2019-06-01T13:05:53.416Z,2.17
2019-06-01T13:08:23.517Z,2.73
2019-06-01T13:10:53.877Z,2.60
2019-06-01T13:13:24.076Z,2.50
2019-06-01T13:15:54.764Z,3.08
2019-06-01T13:18:25.224Z,2.00
2019-06-01T13:20:56.157Z,2.50
2019-06-01T13:23:27.046Z,2.23
2019-06-01T13:25:57.401Z,1.90
2019-06-01T13:28:37.650Z,1.67
2019-06-01T13:30:59.481Z,2.10
2019-06-01T13:33:29.816Z,2.40
2019-06-01T13:36:00.101Z,1.50
2019-06-01T13:38:31.419Z,3.33
2019-06-01T13:41:03.437Z,2.50
2019-06-01T13:43:34.977Z,1.70
2019-06-01T13:46:06.623Z,1.70
2019-06-01T13:48:37.157Z,4.43
2019-06-01T13:51:09.136Z,1.57
2019-06-01T13:53:40.376Z,1.60
2019-06-01T13:56:11.856Z,1.90
2019-06-01T13:58:42.676Z,1.73
2019-06-01T14:01:14.736Z,2.90
2019-06-01T14:03:45.537Z,2.60
2019-06-01T14:06:17.513Z,2.22
2019-06-01T14:08:51.160Z,1.85
2019-06-01T14:11:22.537Z,1.50
2019-06-01T14:13:56.174Z,2.47
2019-06-01T14:16:27.676Z,2.07
2019-06-01T14:19:01.002Z,1.75
2019-06-01T14:21:33.420Z,2.20
2019-06-01T14:24:05.441Z,2.10
2019-06-01T14:26:37.563Z,1.87
2019-06-01T14:29:09.351Z,2.17
2019-06-01T14:31:41.893Z,1.20
2019-06-01T14:34:14.237Z,2.30
2019-06-01T14:36:46.410Z,2.02
2019-06-01T14:39:18.825Z,1.70
2019-06-01T14:41:51.890Z,1.72
2019-06-01T14:44:23.385Z,1.80
2019-06-01T14:47:04.983Z,1.80
2019-06-01T14:49:28.852Z,2.00
2019-06-01T14:52:00.753Z,1.60
2019-06-01T14:54:33.383Z,1.33
2019-06-01T14:57:05.098Z,2.90
2019-06-01T14:59:37.961Z,1.30
2019-06-01T15:02:14.382Z,1.00
2019-06-01T15:04:46.096Z,2.23
2019-06-01T15:07:18.027Z,2.20
2019-06-01T15:09:50.152Z,1.83
2019-06-01T15:12:22.915Z,1.60
2019-06-01T15:14:55.510Z,1.33
2019-06-01T15:17:27.713Z,1.40
2019-06-01T15:20:00.418Z,2.72
2019-06-01T15:22:31.888Z,1.30
2019-06-01T15:25:04.706Z,1.27
2019-06-01T15:27:38.005Z,2.17
2019-06-01T15:30:10.824Z,1.72
2019-06-01T15:32:42.693Z,1.60
2019-06-01T15:35:16.362Z,3.00
2019-06-01T15:37:51.292Z,3.50
2019-06-01T15:40:23.542Z,2.30
2019-06-01T15:42:55.250Z,1.10
2019-06-01T15:45:41.318Z,2.30
2019-06-01T15:48:13.564Z,2.73
2019-06-01T15:50:45.237Z,1.30
2019-06-01T15:53:17.589Z,2.20
2019-06-01T15:55:49.517Z,1.43
2019-06-01T15:58:22.504Z,1.27
2019-06-01T16:00:56.735Z,2.10
2019-06-01T16:03:28.396Z,1.57
2019-06-01T16:06:01.297Z,2.30
2019-06-01T16:08:34.619Z,2.00
2019-06-01T16:11:07.474Z,1.32
2019-06-01T16:13:40.237Z,1.17
2019-06-01T16:16:13.367Z,2.55
2019-06-01T16:18:46.092Z,3.87
2019-06-01T16:21:18.637Z,2.27
2019-06-01T16:23:50.740Z,1.52
2019-06-01T16:26:22.403Z,1.37
2019-06-01T16:28:54.880Z,1.13
2019-06-01T16:31:26.763Z,1.80
2019-06-01T16:33:59.015Z,1.30
2019-06-01T16:36:31.414Z,2.63
2019-06-01T16:39:07.816Z,1.12
2019-06-01T16:41:41.047Z,2.97
2019-06-01T16:44:13.735Z,0.93
2019-06-01T16:46:45.799Z,1.70
2019-06-01T16:49:17.765Z,2.70
2019-06-01T16:51:54.420Z,1.67
2019-06-01T16:54:26.888Z,1.57
2019-06-01T16:56:59.384Z,1.72
2019-06-01T16:59:32.143Z,1.40
2019-06-01T17:02:06.106Z,1.47
2019-06-01T17:04:40.541Z,0.98
2019-06-01T17:07:12.274Z,2.40
2019-06-01T17:09:46.140Z,1.77
2019-06-01T17:12:18.056Z,1.30
2019-06-01T17:14:58.858Z,1.17
2019-06-01T17:17:38.118Z,2.90
2019-06-01T17:20:07.351Z,1.63
2019-06-01T17:22:41.601Z,2.70
2019-06-01T17:25:14.018Z,2.30
2019-06-01T17:27:45.649Z,1.07
2019-06-01T17:30:18.068Z,2.37
2019-06-01T17:32:50.030Z,2.03
2019-06-01T17:35:22.057Z,1.40
2019-06-01T17:37:53.729Z,1.33
2019-06-01T17:40:36.841Z,2.37
2019-06-01T17:43:00.914Z,1.33
2019-06-01T17:45:41.713Z,1.52
2019-06-01T17:48:25.752Z,1.20
2019-06-01T17:50:49.657Z,1.57
2019-06-01T17:53:21.465Z,1.20
2019-06-01T17:55:53.539Z,1.33
2019-06-01T17:58:26.356Z,1.07
2019-06-01T18:00:58.573Z,1.73
2019-06-01T18:03:32.437Z,1.60
2019-06-01T18:06:05.843Z,2.00
2019-06-01T18:08:38.919Z,1.42
2019-06-01T18:11:10.794Z,1.73
2019-06-01T18:13:42.568Z,2.07
2019-06-01T18:16:15.644Z,1.83
2019-06-01T18:18:47.147Z,1.63
2019-06-01T18:21:19.576Z,1.33
2019-06-01T18:23:53.551Z,2.62
2019-06-01T18:26:25.438Z,1.15
2019-06-01T18:28:57.706Z,1.60
2019-06-01T18:31:31.324Z,3.33
2019-06-01T18:34:05.467Z,1.70
2019-06-01T18:36:45.148Z,3.50
2019-06-01T18:39:19.590Z,1.32
2019-06-01T18:41:54.213Z,2.53
2019-06-01T18:44:26.194Z,2.77
2019-06-01T18:46:59.725Z,1.90
2019-06-01T18:49:31.564Z,1.73
2019-06-01T18:52:06.494Z,2.40
2019-06-01T18:54:38.698Z,2.97
2019-06-01T18:57:20.467Z,2.42
2019-06-01T18:59:47.390Z,2.10
2019-06-01T19:02:20.564Z,1.90
2019-06-01T19:04:52.518Z,2.63
2019-06-01T19:07:25.775Z,2.72
2019-06-01T19:09:57.248Z,2.50
2019-06-01T19:12:29.706Z,2.90
2019-06-01T19:15:01.422Z,3.00
2019-06-01T19:17:42.690Z,2.23
2019-06-01T19:20:17.961Z,2.30
2019-06-01T19:22:49.502Z,2.33
2019-06-01T19:25:21.171Z,3.20
2019-06-01T19:27:53.131Z,3.33
2019-06-01T19:30:39.212Z,2.43
2019-06-01T19:33:15.464Z,3.50
2019-06-01T19:35:46.522Z,4.93
2019-06-01T19:38:19.544Z,3.53
2019-06-01T19:40:51.899Z,5.80
2019-06-01T19:43:24.225Z,9.90
2019-06-01T19:45:57.570Z,7.15
2019-06-01T19:48:31.060Z,4.53
2019-06-01T19:51:04.030Z,4.83
2019-06-01T19:53:36.016Z,8.53
2019-06-01T19:56:08.823Z,7.77
2019-06-01T19:58:41.946Z,6.55
2019-06-01T20:01:14.526Z,6.00
2019-06-01T20:03:47.082Z,7.77
2019-06-01T20:06:20.459Z,8.73
2019-06-01T20:08:53.215Z,5.50
2019-06-01T20:11:26.342Z,8.60
2019-06-01T20:13:57.934Z,6.17
2019-06-01T20:16:38.654Z,6.27
2019-06-01T20:19:13.432Z,6.80
2019-06-01T20:21:46.512Z,5.90
2019-06-01T20:24:19.405Z,5.55
2019-06-01T20:27:00.500Z,4.03
2019-06-01T20:29:32.507Z,4.00
2019-06-01T20:32:06.534Z,5.10
2019-06-01T20:34:52.802Z,6.30
2019-06-01T20:37:24.870Z,6.57
2019-06-01T20:39:56.409Z,3.62
2019-06-01T20:42:32.787Z,4.67
2019-06-01T20:45:03.680Z,5.27
2019-06-01T20:47:36.437Z,6.20
2019-06-01T20:50:12.620Z,7.27
2019-06-01T20:52:45.899Z,7.17
2019-06-01T20:55:21.237Z,8.10
2019-06-01T20:57:52.403Z,7.73
2019-06-01T21:00:24.934Z,6.37
2019-06-01T21:02:57.139Z,8.10
2019-06-01T21:05:28.884Z,4.85
2019-06-01T21:08:01.722Z,5.77
2019-06-01T21:10:34.271Z,5.60
2019-06-01T21:13:08.116Z,3.97
2019-06-01T21:15:42.132Z,4.97
2019-06-01T21:18:14.306Z,5.57
2019-06-01T21:20:46.294Z,3.97
2019-06-01T21:23:20.753Z,4.87
2019-06-01T21:25:53.561Z,3.83
2019-06-01T21:28:26.369Z,3.30
2019-06-01T21:30:58.449Z,4.20
2019-06-01T21:33:32.703Z,5.47
2019-06-01T21:36:05.348Z,3.83
2019-06-01T21:38:39.878Z,5.10
2019-06-01T21:41:12.394Z,4.97
2019-06-01T21:43:46.042Z,4.37
2019-06-01T21:46:19.672Z,4.80
2019-06-01T21:48:52.293Z,4.67
2019-06-01T21:51:26.012Z,5.90
2019-06-01T21:54:00.340Z,4.70
2019-06-01T21:56:32.035Z,4.70
2019-06-01T21:59:04.911Z,5.80
2019-06-01T22:01:37.827Z,4.93
2019-06-01T22:04:11.183Z,4.67
2019-06-01T22:06:46.326Z,5.47
2019-06-01T22:09:17.368Z,3.83
2019-06-01T22:11:49.265Z,4.92
2019-06-01T22:14:23.249Z,4.83
2019-06-01T22:16:56.438Z,3.67
2019-06-01T22:19:30.234Z,4.73
2019-06-01T22:22:02.201Z,3.40
2019-06-01T22:24:33.999Z,3.75
2019-06-01T22:27:06.305Z,3.98
2019-06-01T22:29:38.405Z,4.67
2019-06-01T22:32:10.588Z,4.00
2019-06-01T22:34:43.508Z,5.93
2019-06-01T22:37:16.802Z,3.52
2019-06-01T22:39:49.591Z,3.47
2019-06-01T22:42:22.465Z,4.50
2019-06-01T22:44:57.138Z,4.07
2019-06-01T22:47:30.142Z,4.87
2019-06-01T22:50:02.972Z,3.50
2019-06-01T22:52:36.138Z,4.30
2019-06-01T22:55:10.279Z,4.77
2019-06-01T22:57:44.958Z,6.07
2019-06-01T23:00:19.978Z,4.87
2019-06-01T23:02:51.491Z,4.28
2019-06-01T23:05:23.133Z,4.55
2019-06-01T23:07:54.790Z,3.90
2019-06-01T23:10:31.691Z,4.20
2019-06-01T23:13:00.448Z,4.83
2019-06-01T23:15:32.686Z,4.60
2019-06-01T23:18:05.781Z,3.43
2019-06-01T23:20:38.363Z,4.30
2019-06-01T23:23:11.252Z,4.30
2019-06-01T23:25:43.985Z,3.57
2019-06-01T23:28:16.044Z,5.55
2019-06-01T23:30:48.546Z,4.37
2019-06-01T23:33:20.766Z,4.77
2019-06-01T23:35:54.037Z,4.53
2019-06-01T23:38:26.810Z,4.27
2019-06-01T23:40:59.542Z,5.10
2019-06-01T23:43:32.993Z,6.10
2019-06-01T23:46:05.589Z,5.47
2019-06-01T23:48:37.452Z,5.10
2019-06-01T23:51:14.121Z,6.83
2019-06-01T23:53:45.860Z,5.40
2019-06-01T23:56:17.956Z,5.40
2019-06-01T23:58:50.194Z,7.80
